sensor_id;sensor_type;location;lat;lon;timestamp;pressure;altitude;pressure_sealevel;temperature;humidity
59873;BME280;50750;51.636;4.948;2023-11-18T00:01:33;102495.84;;;13.29;63.43
59873;BME280;50750;51.636;4.948;2023-11-18T00:04:01;102496.73;;;13.28;63.38
59873;BME280;50750;51.636;4.948;2023-11-18T00:06:27;102495.16;;;13.27;63.56
59873;BME280;50750;51.636;4.948;2023-11-18T00:08:54;102496.04;;;13.28;63.38
59873;BME280;50750;51.636;4.948;2023-11-18T00:11:21;102496.20;;;13.28;63.32
59873;BME280;50750;51.636;4.948;2023-11-18T00:13:47;102498.13;;;13.28;63.33
59873;BME280;50750;51.636;4.948;2023-11-18T00:16:14;102493.55;;;13.29;63.33
59873;BME280;50750;51.636;4.948;2023-11-18T00:18:42;102489.84;;;13.29;63.32
59873;BME280;50750;51.636;4.948;2023-11-18T00:21:09;102489.48;;;13.29;63.21
59873;BME280;50750;51.636;4.948;2023-11-18T00:23:35;102482.63;;;13.29;63.43
59873;BME280;50750;51.636;4.948;2023-11-18T00:26:02;102478.05;;;13.30;63.37
59873;BME280;50750;51.636;4.948;2023-11-18T00:28:29;102475.42;;;13.29;63.29
59873;BME280;50750;51.636;4.948;2023-11-18T00:30:55;102477.89;;;13.29;63.30
59873;BME280;50750;51.636;4.948;2023-11-18T00:33:22;102476.51;;;13.28;63.25
59873;BME280;50750;51.636;4.948;2023-11-18T00:35:48;102474.58;;;13.28;63.47
59873;BME280;50750;51.636;4.948;2023-11-18T00:38:15;102475.27;;;13.27;63.36
59873;BME280;50750;51.636;4.948;2023-11-18T00:40:41;102474.23;;;13.27;63.31
59873;BME280;50750;51.636;4.948;2023-11-18T00:43:08;102469.48;;;13.25;63.39
59873;BME280;50750;51.636;4.948;2023-11-18T00:45:34;102470.53;;;13.25;63.33
59873;BME280;50750;51.636;4.948;2023-11-18T00:48:01;102470.19;;;13.25;63.32
59873;BME280;50750;51.636;4.948;2023-11-18T00:50:27;102474.05;;;13.25;63.44
59873;BME280;50750;51.636;4.948;2023-11-18T00:52:53;102475.29;;;13.25;63.42
59873;BME280;50750;51.636;4.948;2023-11-18T00:55:20;102480.20;;;13.27;63.41
59873;BME280;50750;51.636;4.948;2023-11-18T00:57:47;102483.02;;;13.26;63.25
59873;BME280;50750;51.636;4.948;2023-11-18T01:00:14;102483.55;;;13.26;63.36
59873;BME280;50750;51.636;4.948;2023-11-18T01:02:43;102487.61;;;13.26;63.30
59873;BME280;50750;51.636;4.948;2023-11-18T01:05:09;102489.52;;;13.26;63.55
59873;BME280;50750;51.636;4.948;2023-11-18T01:07:37;102489.71;;;13.26;63.30
59873;BME280;50750;51.636;4.948;2023-11-18T01:10:05;102491.82;;;13.26;63.43
59873;BME280;50750;51.636;4.948;2023-11-18T01:12:33;102488.48;;;13.26;63.32
59873;BME280;50750;51.636;4.948;2023-11-18T01:14:59;102489.88;;;13.25;63.46
59873;BME280;50750;51.636;4.948;2023-11-18T01:17:26;102490.41;;;13.25;63.32
59873;BME280;50750;51.636;4.948;2023-11-18T01:19:52;102493.58;;;13.24;63.36
59873;BME280;50750;51.636;4.948;2023-11-18T01:22:19;102497.46;;;13.23;63.40
59873;BME280;50750;51.636;4.948;2023-11-18T01:24:46;102497.81;;;13.24;63.42
59873;BME280;50750;51.636;4.948;2023-11-18T01:27:12;102497.11;;;13.23;63.49
59873;BME280;50750;51.636;4.948;2023-11-18T01:29:39;102498.34;;;13.24;63.44
59873;BME280;50750;51.636;4.948;2023-11-18T01:32:06;102500.61;;;13.24;63.41
59873;BME280;50750;51.636;4.948;2023-11-18T01:34:35;102499.21;;;13.24;63.38
59873;BME280;50750;51.636;4.948;2023-11-18T01:37:16;102498.16;;;13.25;63.36
59873;BME280;50750;51.636;4.948;2023-11-18T01:39:43;102492.01;;;13.25;63.33
59873;BME280;50750;51.636;4.948;2023-11-18T01:42:10;102496.92;;;13.25;63.43
59873;BME280;50750;51.636;4.948;2023-11-18T01:44:38;102499.90;;;13.24;63.16
59873;BME280;50750;51.636;4.948;2023-11-18T01:47:04;102503.78;;;13.25;63.46
59873;BME280;50750;51.636;4.948;2023-11-18T01:49:35;102502.39;;;13.24;63.45
59873;BME280;50750;51.636;4.948;2023-11-18T01:52:09;102498.69;;;13.24;63.35
59873;BME280;50750;51.636;4.948;2023-11-18T01:54:37;102496.94;;;13.23;63.34
59873;BME280;50750;51.636;4.948;2023-11-18T01:57:04;102496.75;;;13.23;63.42
59873;BME280;50750;51.636;4.948;2023-11-18T01:59:33;102493.79;;;13.23;63.39
59873;BME280;50750;51.636;4.948;2023-11-18T02:02:00;102495.38;;;13.22;63.43
59873;BME280;50750;51.636;4.948;2023-11-18T02:04:28;102493.80;;;13.22;63.56
59873;BME280;50750;51.636;4.948;2023-11-18T02:06:56;102495.20;;;13.22;63.39
59873;BME280;50750;51.636;4.948;2023-11-18T02:09:23;102493.27;;;13.23;63.36
59873;BME280;50750;51.636;4.948;2023-11-18T02:14:44;102508.55;;;13.23;63.37
59873;BME280;50750;51.636;4.948;2023-11-18T02:17:14;102512.41;;;13.23;63.38
59873;BME280;50750;51.636;4.948;2023-11-18T02:19:42;102507.14;;;13.24;63.50
59873;BME280;50750;51.636;4.948;2023-11-18T02:22:09;102504.49;;;13.24;63.34
59873;BME280;50750;51.636;4.948;2023-11-18T02:24:37;102501.50;;;13.24;63.25
59873;BME280;50750;51.636;4.948;2023-11-18T02:27:04;102505.73;;;13.23;63.38
59873;BME280;50750;51.636;4.948;2023-11-18T02:29:41;102500.80;;;13.23;63.42
59873;BME280;50750;51.636;4.948;2023-11-18T02:35:38;102494.67;;;13.22;63.50
59873;BME280;50750;51.636;4.948;2023-11-18T02:37:42;102499.08;;;13.21;63.36
59873;BME280;50750;51.636;4.948;2023-11-18T02:40:12;102499.27;;;13.21;63.40
59873;BME280;50750;51.636;4.948;2023-11-18T02:42:43;102488.55;;;13.20;63.34
59873;BME280;50750;51.636;4.948;2023-11-18T02:45:12;102480.46;;;13.20;63.49
59873;BME280;50750;51.636;4.948;2023-11-18T02:47:45;102468.15;;;13.20;63.27
59873;BME280;50750;51.636;4.948;2023-11-18T02:50:12;102465.50;;;13.20;63.43
59873;BME280;50750;51.636;4.948;2023-11-18T02:52:39;102469.71;;;13.21;63.53
59873;BME280;50750;51.636;4.948;2023-11-18T02:55:07;102471.11;;;13.21;63.23
59873;BME280;50750;51.636;4.948;2023-11-18T02:57:35;102472.69;;;13.22;63.41
59873;BME280;50750;51.636;4.948;2023-11-18T03:00:03;102471.46;;;13.22;63.39
59873;BME280;50750;51.636;4.948;2023-11-18T03:02:31;102457.21;;;13.22;63.27
59873;BME280;50750;51.636;4.948;2023-11-18T03:04:57;102447.54;;;13.22;63.42
59873;BME280;50750;51.636;4.948;2023-11-18T03:07:24;102448.94;;;13.22;63.43
59873;BME280;50750;51.636;4.948;2023-11-18T03:09:53;102449.83;;;13.22;63.54
59873;BME280;50750;51.636;4.948;2023-11-18T03:12:23;102450.00;;;13.22;63.27
59873;BME280;50750;51.636;4.948;2023-11-18T03:14:54;102450.00;;;13.21;63.48
59873;BME280;50750;51.636;4.948;2023-11-18T03:17:20;102454.23;;;13.21;63.39
59873;BME280;50750;51.636;4.948;2023-11-18T03:19:47;102445.45;;;13.20;63.50
59873;BME280;50750;51.636;4.948;2023-11-18T03:22:13;102442.47;;;13.19;63.37
59873;BME280;50750;51.636;4.948;2023-11-18T03:24:39;102439.13;;;13.19;63.43
59873;BME280;50750;51.636;4.948;2023-11-18T03:27:06;102437.90;;;13.19;63.49
59873;BME280;50750;51.636;4.948;2023-11-18T03:29:34;102436.67;;;13.20;63.30
59873;BME280;50750;51.636;4.948;2023-11-18T03:32:02;102430.67;;;13.20;63.46
59873;BME280;50750;51.636;4.948;2023-11-18T03:34:31;102427.15;;;13.20;63.65
59873;BME280;50750;51.636;4.948;2023-11-18T03:36:57;102422.91;;;13.21;63.48
59873;BME280;50750;51.636;4.948;2023-11-18T03:39:24;102420.82;;;13.20;63.44
59873;BME280;50750;51.636;4.948;2023-11-18T03:41:51;102412.20;;;13.20;63.56
59873;BME280;50750;51.636;4.948;2023-11-18T03:44:17;102402.52;;;13.21;63.34
59873;BME280;50750;51.636;4.948;2023-11-18T03:46:43;102399.36;;;13.20;63.48
59873;BME280;50750;51.636;4.948;2023-11-18T03:49:10;102399.00;;;13.20;63.52
59873;BME280;50750;51.636;4.948;2023-11-18T03:51:36;102396.38;;;13.20;63.45
59873;BME280;50750;51.636;4.948;2023-11-18T03:54:03;102393.05;;;13.20;63.54
59873;BME280;50750;51.636;4.948;2023-11-18T03:56:30;102376.69;;;13.19;63.47
59873;BME280;50750;51.636;4.948;2023-11-18T03:58:56;102366.85;;;13.18;63.45
59873;BME280;50750;51.636;4.948;2023-11-18T04:01:23;102365.45;;;13.18;63.38
59873;BME280;50750;51.636;4.948;2023-11-18T04:03:53;102365.99;;;13.17;63.49
59873;BME280;50750;51.636;4.948;2023-11-18T04:06:20;102373.39;;;13.17;63.47
59873;BME280;50750;51.636;4.948;2023-11-18T04:08:48;102373.02;;;13.18;63.45
59873;BME280;50750;51.636;4.948;2023-11-18T04:11:15;102377.59;;;13.18;63.41
59873;BME280;50750;51.636;4.948;2023-11-18T04:13:41;102378.10;;;13.18;63.51
59873;BME280;50750;51.636;4.948;2023-11-18T04:16:12;102377.74;;;13.19;63.56
59873;BME280;50750;51.636;4.948;2023-11-18T04:18:39;102372.99;;;13.19;63.50
59873;BME280;50750;51.636;4.948;2023-11-18T04:21:09;102373.52;;;13.19;63.44
59873;BME280;50750;51.636;4.948;2023-11-18T04:23:41;102362.97;;;13.19;63.50
59873;BME280;50750;51.636;4.948;2023-11-18T04:26:08;102359.64;;;13.19;63.43
59873;BME280;50750;51.636;4.948;2023-11-18T04:28:36;102352.06;;;13.19;63.55
59873;BME280;50750;51.636;4.948;2023-11-18T04:31:03;102348.38;;;13.18;63.52
59873;BME280;50750;51.636;4.948;2023-11-18T04:33:32;102345.75;;;13.18;63.45
59873;BME280;50750;51.636;4.948;2023-11-18T04:35:59;102344.70;;;13.18;63.49
59873;BME280;50750;51.636;4.948;2023-11-18T04:38:26;102341.73;;;13.17;63.33
59873;BME280;50750;51.636;4.948;2023-11-18T04:40:53;102339.45;;;13.17;63.46
59873;BME280;50750;51.636;4.948;2023-11-18T04:43:20;102340.85;;;13.16;63.52
59873;BME280;50750;51.636;4.948;2023-11-18T04:45:48;102336.46;;;13.16;63.61
59873;BME280;50750;51.636;4.948;2023-11-18T04:48:14;102331.36;;;13.16;63.39
59873;BME280;50750;51.636;4.948;2023-11-18T04:50:42;102332.04;;;13.17;63.46
59873;BME280;50750;51.636;4.948;2023-11-18T04:53:08;102333.45;;;13.18;63.53
59873;BME280;50750;51.636;4.948;2023-11-18T04:55:37;102332.03;;;13.18;63.55
59873;BME280;50750;51.636;4.948;2023-11-18T04:58:04;102326.40;;;13.18;63.38
59873;BME280;50750;51.636;4.948;2023-11-18T05:00:38;102316.17;;;13.19;63.39
59873;BME280;50750;51.636;4.948;2023-11-18T05:03:05;102313.36;;;13.19;63.45
59873;BME280;50750;51.636;4.948;2023-11-18T05:05:39;102307.92;;;13.19;63.50
59873;BME280;50750;51.636;4.948;2023-11-18T05:08:06;102308.80;;;13.18;63.28
59873;BME280;50750;51.636;4.948;2023-11-18T05:10:34;102302.32;;;13.17;63.43
59873;BME280;50750;51.636;4.948;2023-11-18T05:13:01;102298.09;;;13.17;63.46
59873;BME280;50750;51.636;4.948;2023-11-18T05:15:28;102297.23;;;13.17;63.43
59873;BME280;50750;51.636;4.948;2023-11-18T05:17:56;102292.66;;;13.16;63.52
59873;BME280;50750;51.636;4.948;2023-11-18T05:20:22;102289.33;;;13.16;63.45
59873;BME280;50750;51.636;4.948;2023-11-18T05:22:49;102280.20;;;13.15;63.44
59873;BME280;50750;51.636;4.948;2023-11-18T05:25:15;102274.39;;;13.15;63.38
59873;BME280;50750;51.636;4.948;2023-11-18T05:27:42;102277.54;;;13.16;63.56
59873;BME280;50750;51.636;4.948;2023-11-18T05:30:10;102280.38;;;13.16;63.42
59873;BME280;50750;51.636;4.948;2023-11-18T05:32:37;102289.67;;;13.16;63.52
59873;BME280;50750;51.636;4.948;2023-11-18T05:35:04;102288.42;;;13.17;63.70
59873;BME280;50750;51.636;4.948;2023-11-18T05:37:31;102284.55;;;13.17;63.42
59873;BME280;50750;51.636;4.948;2023-11-18T05:40:05;102277.86;;;13.18;63.51
59873;BME280;50750;51.636;4.948;2023-11-18T05:42:36;102275.92;;;13.18;63.56
59873;BME280;50750;51.636;4.948;2023-11-18T05:45:04;102266.80;;;13.17;63.41
59873;BME280;50750;51.636;4.948;2023-11-18T05:47:31;102260.30;;;13.17;63.59
59873;BME280;50750;51.636;4.948;2023-11-18T05:49:57;102265.56;;;13.17;63.60
59873;BME280;50750;51.636;4.948;2023-11-18T05:52:24;102260.64;;;13.16;63.54
59873;BME280;50750;51.636;4.948;2023-11-18T05:54:50;102257.66;;;13.16;63.40
59873;BME280;50750;51.636;4.948;2023-11-18T05:57:18;102250.81;;;13.16;63.51
59873;BME280;50750;51.636;4.948;2023-11-18T05:59:44;102243.98;;;13.15;63.66
59873;BME280;50750;51.636;4.948;2023-11-18T06:02:14;102236.23;;;13.15;63.77
59873;BME280;50750;51.636;4.948;2023-11-18T06:04:45;102224.48;;;13.14;63.65
59873;BME280;50750;51.636;4.948;2023-11-18T06:07:11;102220.94;;;13.15;63.63
59873;BME280;50750;51.636;4.948;2023-11-18T06:09:41;102230.08;;;13.15;63.49
59873;BME280;50750;51.636;4.948;2023-11-18T06:12:08;102248.00;;;13.15;63.36
59873;BME280;50750;51.636;4.948;2023-11-18T06:14:37;102253.27;;;13.16;63.62
59873;BME280;50750;51.636;4.948;2023-11-18T06:17:04;102247.13;;;13.16;63.59
59873;BME280;50750;51.636;4.948;2023-11-18T06:19:34;102234.98;;;13.16;63.54
59873;BME280;50750;51.636;4.948;2023-11-18T06:22:00;102230.77;;;13.15;63.42
59873;BME280;50750;51.636;4.948;2023-11-18T06:24:27;102222.84;;;13.16;63.29
59873;BME280;50750;51.636;4.948;2023-11-18T06:26:54;102221.95;;;13.16;63.54
59873;BME280;50750;51.636;4.948;2023-11-18T06:29:21;102223.20;;;13.15;63.54
59873;BME280;50750;51.636;4.948;2023-11-18T06:31:47;102218.66;;;13.15;63.55
59873;BME280;50750;51.636;4.948;2023-11-18T06:34:14;102220.77;;;13.15;63.68
59873;BME280;50750;51.636;4.948;2023-11-18T06:36:41;102214.46;;;13.14;63.53
59873;BME280;50750;51.636;4.948;2023-11-18T06:39:07;102209.02;;;13.13;63.46
59873;BME280;50750;51.636;4.948;2023-11-18T06:41:34;102206.37;;;13.13;63.65
59873;BME280;50750;51.636;4.948;2023-11-18T06:44:01;102207.42;;;13.13;63.39
59873;BME280;50750;51.636;4.948;2023-11-18T06:46:35;102214.10;;;13.13;63.42
59873;BME280;50750;51.636;4.948;2023-11-18T06:49:06;102216.74;;;13.14;63.44
59873;BME280;50750;51.636;4.948;2023-11-18T06:51:41;102213.39;;;13.14;63.53
59873;BME280;50750;51.636;4.948;2023-11-18T06:54:09;102208.99;;;13.14;63.46
59873;BME280;50750;51.636;4.948;2023-11-18T06:56:37;102212.30;;;13.15;63.64
59873;BME280;50750;51.636;4.948;2023-11-18T06:59:07;102217.75;;;13.16;63.53
59873;BME280;50750;51.636;4.948;2023-11-18T07:01:34;102216.53;;;13.15;63.63
59873;BME280;50750;51.636;4.948;2023-11-18T07:04:02;102214.96;;;13.15;63.54
59873;BME280;50750;51.636;4.948;2023-11-18T07:06:29;102212.48;;;13.15;63.64
59873;BME280;50750;51.636;4.948;2023-11-18T07:08:55;102208.10;;;13.15;63.66
59873;BME280;50750;51.636;4.948;2023-11-18T07:11:26;102210.23;;;13.14;63.42
59873;BME280;50750;51.636;4.948;2023-11-18T07:13:53;102210.58;;;13.14;63.66
59873;BME280;50750;51.636;4.948;2023-11-18T07:16:25;102209.36;;;13.13;63.62
59873;BME280;50750;51.636;4.948;2023-11-18T07:18:52;102208.30;;;13.13;63.52
59873;BME280;50750;51.636;4.948;2023-11-18T07:21:19;102214.30;;;13.12;63.57
59873;BME280;50750;51.636;4.948;2023-11-18T07:23:46;102218.35;;;13.12;63.64
59873;BME280;50750;51.636;4.948;2023-11-18T07:26:12;102214.29;;;13.13;63.50
59873;BME280;50750;51.636;4.948;2023-11-18T07:28:41;102212.70;;;13.13;63.75
59873;BME280;50750;51.636;4.948;2023-11-18T07:31:10;102213.05;;;13.14;63.31
59873;BME280;50750;51.636;4.948;2023-11-18T07:33:37;102219.56;;;13.14;63.67
59873;BME280;50750;51.636;4.948;2023-11-18T07:36:04;102214.10;;;13.14;63.44
59873;BME280;50750;51.636;4.948;2023-11-18T07:38:32;102211.83;;;13.14;63.53
59873;BME280;50750;51.636;4.948;2023-11-18T07:41:01;102211.29;;;13.14;63.48
59873;BME280;50750;51.636;4.948;2023-11-18T07:43:29;102211.64;;;13.14;63.54
59873;BME280;50750;51.636;4.948;2023-11-18T07:45:56;102209.01;;;13.13;63.50
59873;BME280;50750;51.636;4.948;2023-11-18T07:48:23;102215.34;;;13.13;63.56
59873;BME280;50750;51.636;4.948;2023-11-18T07:50:49;102216.76;;;13.13;63.62
59873;BME280;50750;51.636;4.948;2023-11-18T07:53:16;102215.52;;;13.13;63.71
59873;BME280;50750;51.636;4.948;2023-11-18T07:55:42;102216.42;;;13.12;63.72
59873;BME280;50750;51.636;4.948;2023-11-18T07:58:10;102218.54;;;13.11;63.50
59873;BME280;50750;51.636;4.948;2023-11-18T08:00:40;102210.98;;;13.11;63.56
59873;BME280;50750;51.636;4.948;2023-11-18T08:03:07;102210.28;;;13.11;63.56
59873;BME280;50750;51.636;4.948;2023-11-18T08:05:39;102213.60;;;13.12;63.57
59873;BME280;50750;51.636;4.948;2023-11-18T08:08:06;102212.03;;;13.12;63.64
59873;BME280;50750;51.636;4.948;2023-11-18T08:10:34;102196.37;;;13.12;63.51
59873;BME280;50750;51.636;4.948;2023-11-18T08:13:05;102195.65;;;13.13;63.57
59873;BME280;50750;51.636;4.948;2023-11-18T08:15:33;102196.88;;;13.13;63.65
59873;BME280;50750;51.636;4.948;2023-11-18T08:18:01;102201.63;;;13.14;63.60
59873;BME280;50750;51.636;4.948;2023-11-18T08:20:29;102205.32;;;13.13;63.45
59873;BME280;50750;51.636;4.948;2023-11-18T08:22:55;102202.67;;;13.13;63.66
59873;BME280;50750;51.636;4.948;2023-11-18T08:25:22;102209.89;;;13.13;63.45
59873;BME280;50750;51.636;4.948;2023-11-18T08:27:48;102207.23;;;13.13;63.62
59873;BME280;50750;51.636;4.948;2023-11-18T08:30:15;102198.13;;;13.12;63.49
59873;BME280;50750;51.636;4.948;2023-11-18T08:32:45;102188.45;;;13.12;63.58
59873;BME280;50750;51.636;4.948;2023-11-18T08:35:12;102187.40;;;13.12;63.52
59873;BME280;50750;51.636;4.948;2023-11-18T08:37:42;102182.86;;;13.10;63.59
59873;BME280;50750;51.636;4.948;2023-11-18T08:40:10;102175.48;;;13.10;63.41
59873;BME280;50750;51.636;4.948;2023-11-18T08:42:49;102170.71;;;13.11;63.65
59873;BME280;50750;51.636;4.948;2023-11-18T08:45:20;102167.20;;;13.11;63.57
59873;BME280;50750;51.636;4.948;2023-11-18T08:48:01;102163.69;;;13.11;63.68
59873;BME280;50750;51.636;4.948;2023-11-18T08:50:35;102157.34;;;13.12;63.60
59873;BME280;50750;51.636;4.948;2023-11-18T08:53:02;102144.13;;;13.12;63.66
59873;BME280;50750;51.636;4.948;2023-11-18T08:55:32;102145.88;;;13.13;63.54
59873;BME280;50750;51.636;4.948;2023-11-18T08:58:17;102140.24;;;13.13;63.62
59873;BME280;50750;51.636;4.948;2023-11-18T09:00:49;102133.56;;;13.13;63.58
59873;BME280;50750;51.636;4.948;2023-11-18T09:03:22;102133.56;;;13.13;63.51
59873;BME280;50750;51.636;4.948;2023-11-18T09:05:53;102131.80;;;13.13;63.56
59873;BME280;50750;51.636;4.948;2023-11-18T09:08:33;102133.56;;;13.13;63.54
59873;BME280;50750;51.636;4.948;2023-11-18T09:11:06;102128.49;;;13.12;63.64
59873;BME280;50750;51.636;4.948;2023-11-18T09:13:34;102111.26;;;13.12;63.73
59873;BME280;50750;51.636;4.948;2023-11-18T09:16:05;102102.13;;;13.11;63.58
59873;BME280;50750;51.636;4.948;2023-11-18T09:18:36;102091.40;;;13.11;63.53
59873;BME280;50750;51.636;4.948;2023-11-18T09:21:05;102084.89;;;13.11;63.67
59873;BME280;50750;51.636;4.948;2023-11-18T09:23:33;102079.62;;;13.11;63.49
59873;BME280;50750;51.636;4.948;2023-11-18T09:26:04;102072.05;;;13.11;63.88
59873;BME280;50750;51.636;4.948;2023-11-18T09:28:35;102068.52;;;13.12;63.52
59873;BME280;50750;51.636;4.948;2023-11-18T09:31:02;102076.08;;;13.12;63.59
59873;BME280;50750;51.636;4.948;2023-11-18T09:33:34;102092.76;;;13.13;63.80
59873;BME280;50750;51.636;4.948;2023-11-18T09:36:02;102096.80;;;13.13;63.60
59873;BME280;50750;51.636;4.948;2023-11-18T09:38:30;102087.65;;;13.14;63.70
59873;BME280;50750;51.636;4.948;2023-11-18T09:40:58;102083.97;;;13.13;63.73
59873;BME280;50750;51.636;4.948;2023-11-18T09:43:33;102073.41;;;13.13;63.62
59873;BME280;50750;51.636;4.948;2023-11-18T09:46:16;102066.90;;;13.13;63.60
59873;BME280;50750;51.636;4.948;2023-11-18T09:48:47;102056.89;;;13.13;63.70
59873;BME280;50750;51.636;4.948;2023-11-18T09:51:24;102053.92;;;13.12;63.68
59873;BME280;50750;51.636;4.948;2023-11-18T09:53:53;102061.83;;;13.12;63.75
59873;BME280;50750;51.636;4.948;2023-11-18T09:56:23;102048.14;;;13.11;63.78
59873;BME280;50750;51.636;4.948;2023-11-18T09:59:11;102035.83;;;13.11;63.63
59873;BME280;50750;51.636;4.948;2023-11-18T10:01:50;102031.62;;;13.10;63.63
59873;BME280;50750;51.636;4.948;2023-11-18T10:04:20;102021.77;;;13.11;63.71
59873;BME280;50750;51.636;4.948;2023-11-18T10:06:47;102007.16;;;13.11;63.72
59873;BME280;50750;51.636;4.948;2023-11-18T10:09:16;102003.10;;;13.11;63.59
59873;BME280;50750;51.636;4.948;2023-11-18T10:11:47;102008.90;;;13.12;63.70
59873;BME280;50750;51.636;4.948;2023-11-18T10:14:14;102006.93;;;13.13;63.85
59873;BME280;50750;51.636;4.948;2023-11-18T10:16:44;102017.83;;;13.13;63.77
59873;BME280;50750;51.636;4.948;2023-11-18T10:19:15;102020.30;;;13.14;63.61
59873;BME280;50750;51.636;4.948;2023-11-18T10:21:43;102012.21;;;13.13;63.64
59873;BME280;50750;51.636;4.948;2023-11-18T10:24:15;102009.23;;;13.13;63.76
59873;BME280;50750;51.636;4.948;2023-11-18T10:26:54;102005.70;;;13.13;63.82
59873;BME280;50750;51.636;4.948;2023-11-18T10:29:24;102010.98;;;13.13;63.83
59873;BME280;50750;51.636;4.948;2023-11-18T10:32:06;101999.73;;;13.13;63.72
59873;BME280;50750;51.636;4.948;2023-11-18T10:34:42;101993.08;;;13.12;63.76
59873;BME280;50750;51.636;4.948;2023-11-18T10:37:09;101983.77;;;13.11;63.85
59873;BME280;50750;51.636;4.948;2023-11-18T10:39:37;101978.67;;;13.11;63.95
59873;BME280;50750;51.636;4.948;2023-11-18T10:42:03;101974.80;;;13.11;63.73
59873;BME280;50750;51.636;4.948;2023-11-18T10:44:30;101978.50;;;13.11;63.80
59873;BME280;50750;51.636;4.948;2023-11-18T10:46:58;101977.97;;;13.11;63.79
59873;BME280;50750;51.636;4.948;2023-11-18T10:49:28;101967.41;;;13.12;63.67
59873;BME280;50750;51.636;4.948;2023-11-18T10:51:55;101960.19;;;13.12;63.95
59873;BME280;50750;51.636;4.948;2023-11-18T10:54:22;101958.23;;;13.13;63.86
59873;BME280;50750;51.636;4.948;2023-11-18T10:56:52;101956.81;;;13.13;63.88
59873;BME280;50750;51.636;4.948;2023-11-18T10:59:23;101955.05;;;13.13;63.85
59873;BME280;50750;51.636;4.948;2023-11-18T11:01:49;101943.27;;;13.13;63.74
59873;BME280;50750;51.636;4.948;2023-11-18T11:04:15;101940.10;;;13.13;63.78
59873;BME280;50750;51.636;4.948;2023-11-18T11:06:49;101929.38;;;13.13;63.81
59873;BME280;50750;51.636;4.948;2023-11-18T11:09:19;101927.46;;;13.12;63.75
59873;BME280;50750;51.636;4.948;2023-11-18T11:12:00;101914.10;;;13.13;63.70
59873;BME280;50750;51.636;4.948;2023-11-18T11:14:34;101891.27;;;13.12;63.85
59873;BME280;50750;51.636;4.948;2023-11-18T11:17:12;101877.90;;;13.12;63.56
59873;BME280;50750;51.636;4.948;2023-11-18T11:19:57;101872.81;;;13.11;63.86
59873;BME280;50750;51.636;4.948;2023-11-18T11:22:45;101858.73;;;13.12;63.83
59873;BME280;50750;51.636;4.948;2023-11-18T11:25:17;101836.91;;;13.12;63.71
59873;BME280;50750;51.636;4.948;2023-11-18T11:28:00;101830.02;;;13.13;63.91
59873;BME280;50750;51.636;4.948;2023-11-18T11:33:39;101807.13;;;13.15;63.80
59873;BME280;50750;51.636;4.948;2023-11-18T11:36:11;101791.64;;;13.15;63.82
59873;BME280;50750;51.636;4.948;2023-11-18T11:38:38;101784.06;;;13.15;63.80
59873;BME280;50750;51.636;4.948;2023-11-18T11:41:05;101782.14;;;13.15;63.83
59873;BME280;50750;51.636;4.948;2023-11-18T11:43:34;101777.22;;;13.15;63.80
59873;BME280;50750;51.636;4.948;2023-11-18T11:46:02;101767.92;;;13.14;63.82
59873;BME280;50750;51.636;4.948;2023-11-18T11:48:38;101767.05;;;13.14;63.93
59873;BME280;50750;51.636;4.948;2023-11-18T11:51:25;101777.45;;;13.14;63.92
59873;BME280;50750;51.636;4.948;2023-11-18T11:54:13;101774.10;;;13.13;63.87
59873;BME280;50750;51.636;4.948;2023-11-18T11:56:45;101774.47;;;13.13;63.87
59873;BME280;50750;51.636;4.948;2023-11-18T12:02:11;101754.98;;;13.12;63.91
59873;BME280;50750;51.636;4.948;2023-11-18T12:04:45;101747.20;;;13.13;63.95
59873;BME280;50750;51.636;4.948;2023-11-18T12:07:14;101738.76;;;13.14;64.03
59873;BME280;50750;51.636;4.948;2023-11-18T12:09:42;101730.64;;;13.15;63.98
59873;BME280;50750;51.636;4.948;2023-11-18T12:12:17;101724.81;;;13.15;64.06
59873;BME280;50750;51.636;4.948;2023-11-18T12:14:58;101717.77;;;13.15;64.09
59873;BME280;50750;51.636;4.948;2023-11-18T12:20:41;101712.66;;;13.15;64.01
59873;BME280;50750;51.636;4.948;2023-11-18T12:23:08;101705.11;;;13.15;64.03
59873;BME280;50750;51.636;4.948;2023-11-18T12:25:41;101693.88;;;13.15;63.94
59873;BME280;50750;51.636;4.948;2023-11-18T12:28:09;101677.90;;;13.14;64.14
59873;BME280;50750;51.636;4.948;2023-11-18T12:33:05;101649.95;;;13.14;64.20
59873;BME280;50750;51.636;4.948;2023-11-18T12:41:04;101608.83;;;13.13;64.05
59873;BME280;50750;51.636;4.948;2023-11-18T12:43:49;101590.70;;;13.13;64.10
59873;BME280;50750;51.636;4.948;2023-11-18T12:49:00;101570.64;;;13.14;64.08
59873;BME280;50750;51.636;4.948;2023-11-18T12:51:27;101566.41;;;13.14;64.06
59873;BME280;50750;51.636;4.948;2023-11-18T12:53:53;101561.48;;;13.14;64.02
59873;BME280;50750;51.636;4.948;2023-11-18T12:56:20;101560.05;;;13.15;64.09
59873;BME280;50750;51.636;4.948;2023-11-18T12:58:49;101557.77;;;13.14;64.14
59873;BME280;50750;51.636;4.948;2023-11-18T13:01:17;101558.30;;;13.15;63.95
59873;BME280;50750;51.636;4.948;2023-11-18T13:03:45;101557.63;;;13.14;64.22
59873;BME280;50750;51.636;4.948;2023-11-18T13:06:11;101557.80;;;13.14;64.23
59873;BME280;50750;51.636;4.948;2023-11-18T13:08:38;101546.20;;;13.13;64.12
59873;BME280;50750;51.636;4.948;2023-11-18T13:11:05;101533.38;;;13.14;64.06
59873;BME280;50750;51.636;4.948;2023-11-18T13:13:38;101523.71;;;13.13;64.16
59873;BME280;50750;51.636;4.948;2023-11-18T13:16:08;101515.11;;;13.12;64.21
59873;BME280;50750;51.636;4.948;2023-11-18T13:21:14;101504.01;;;13.13;64.22
59873;BME280;50750;51.636;4.948;2023-11-18T13:23:46;101510.14;;;13.14;64.30
59873;BME280;50750;51.636;4.948;2023-11-18T13:26:15;101522.29;;;13.14;64.33
59873;BME280;50750;51.636;4.948;2023-11-18T13:28:42;101518.23;;;13.14;64.20